createdAt,value
2023-04-10T00:00:15.376Z,10.20
2023-04-10T00:03:04.899Z,10.21
2023-04-10T00:05:34.012Z,10.21
2023-04-10T00:08:03.070Z,10.21
2023-04-10T00:10:32.753Z,10.19
2023-04-10T00:13:03.098Z,10.17
2023-04-10T00:15:32.075Z,10.16
2023-04-10T00:18:00.979Z,10.14
2023-04-10T00:20:30.030Z,10.15
2023-04-10T00:22:59.036Z,10.13
2023-04-10T00:25:28.090Z,10.12
2023-04-10T00:27:57.103Z,10.09
2023-04-10T00:30:26.418Z,10.08
2023-04-10T00:32:55.539Z,10.06
2023-04-10T00:35:24.585Z,10.05
2023-04-10T00:37:54.073Z,10.06
2023-04-10T00:40:23.137Z,10.07
2023-04-10T00:42:52.305Z,10.06
2023-04-10T00:45:21.769Z,10.04
2023-04-10T00:47:51.424Z,10.04
2023-04-10T00:50:21.843Z,10.03
2023-04-10T00:52:51.585Z,10.02
2023-04-10T00:55:20.690Z,10.00
2023-04-10T00:57:50.101Z,10.01
2023-04-10T01:00:19.154Z,9.99
2023-04-10T01:02:48.231Z,9.99
2023-04-10T01:05:17.505Z,9.98
2023-04-10T01:08:02.538Z,9.97
2023-04-10T01:10:38.519Z,9.96
2023-04-10T01:13:16.464Z,9.94
2023-04-10T01:15:52.808Z,9.91
2023-04-10T01:18:29.418Z,9.87
2023-04-10T01:21:02.465Z,9.83
2023-04-10T01:24:00.636Z,9.77
2023-04-10T01:26:42.847Z,9.71
2023-04-10T01:29:14.813Z,9.66
2023-04-10T01:31:50.767Z,9.62
2023-04-10T01:34:20.619Z,9.59
2023-04-10T01:36:53.661Z,9.55
2023-04-10T01:39:23.891Z,9.53
2023-04-10T01:41:54.401Z,9.52
2023-04-10T01:44:27.846Z,9.52
2023-04-10T01:46:58.638Z,9.49
2023-04-10T01:49:30.458Z,9.47
2023-04-10T01:52:01.654Z,9.46
2023-04-10T01:54:32.781Z,9.45
2023-04-10T01:57:03.765Z,9.45
2023-04-10T01:59:33.031Z,9.43
2023-04-10T02:02:02.647Z,9.42
2023-04-10T02:04:31.801Z,9.39
2023-04-10T02:07:04.607Z,9.38
2023-04-10T02:09:58.277Z,9.37
2023-04-10T02:12:31.931Z,9.36
2023-04-10T02:15:03.175Z,9.35
2023-04-10T02:17:33.913Z,9.33
2023-04-10T02:20:05.402Z,9.31
2023-04-10T02:22:36.094Z,9.30
2023-04-10T02:25:08.132Z,9.29
2023-04-10T02:27:37.827Z,9.28
2023-04-10T02:30:09.074Z,9.27
2023-04-10T02:32:38.073Z,9.27
2023-04-10T02:35:08.028Z,9.27
2023-04-10T02:37:37.142Z,9.24
2023-04-10T02:40:08.580Z,9.21
2023-04-10T02:42:37.468Z,9.19
2023-04-10T02:45:08.979Z,9.18
2023-04-10T02:47:38.075Z,9.15
2023-04-10T02:50:08.537Z,9.13
2023-04-10T02:52:37.622Z,9.09
2023-04-10T02:55:08.159Z,9.08
2023-04-10T02:57:37.266Z,9.06
2023-04-10T03:00:08.946Z,9.05
2023-04-10T03:02:38.055Z,9.03
2023-04-10T03:05:08.973Z,9.02
2023-04-10T03:07:37.925Z,9.01
2023-04-10T03:10:09.284Z,9.00
2023-04-10T03:12:38.145Z,8.99
2023-04-10T03:15:09.416Z,8.97
2023-04-10T03:17:38.294Z,8.94
2023-04-10T03:20:10.868Z,8.93
2023-04-10T03:22:40.566Z,8.91
2023-04-10T03:25:10.745Z,8.91
2023-04-10T03:27:40.632Z,8.88
2023-04-10T03:30:12.137Z,8.87
2023-04-10T03:32:42.444Z,8.85
2023-04-10T03:35:11.847Z,8.84
2023-04-10T03:37:42.075Z,8.82
2023-04-10T03:40:12.192Z,8.81
2023-04-10T03:42:41.095Z,8.78
2023-04-10T03:45:12.528Z,8.76
2023-04-10T03:47:41.683Z,8.75
2023-04-10T03:50:11.702Z,8.74
2023-04-10T03:52:41.231Z,8.73
2023-04-10T03:55:10.679Z,8.73
2023-04-10T03:57:39.635Z,8.69
2023-04-10T04:00:12.138Z,8.68
2023-04-10T04:02:41.423Z,8.69
2023-04-10T04:05:10.854Z,8.68
2023-04-10T04:07:39.959Z,8.64
2023-04-10T04:10:09.926Z,8.69
2023-04-10T04:12:38.955Z,8.69
2023-04-10T04:15:10.398Z,8.68
2023-04-10T04:17:40.022Z,8.67
2023-04-10T04:20:11.264Z,8.67
2023-04-10T04:22:40.952Z,8.67
2023-04-10T04:25:10.969Z,8.68
2023-04-10T04:27:40.024Z,8.70
2023-04-10T04:30:11.152Z,8.69
2023-04-10T04:32:40.220Z,8.69
2023-04-10T04:35:10.827Z,8.66
2023-04-10T04:37:40.226Z,8.66
2023-04-10T04:40:11.237Z,8.66
2023-04-10T04:42:40.315Z,8.66
2023-04-10T04:45:11.284Z,8.67
2023-04-10T04:47:40.186Z,8.69
2023-04-10T04:50:11.162Z,8.71
2023-04-10T04:52:40.175Z,8.73
2023-04-10T04:55:10.507Z,8.74
2023-04-10T04:57:39.498Z,8.75
2023-04-10T05:00:11.089Z,8.77
2023-04-10T05:02:40.141Z,8.80
2023-04-10T05:05:10.108Z,8.83
2023-04-10T05:07:39.070Z,8.88
2023-04-10T05:10:09.973Z,8.92
2023-04-10T05:12:41.294Z,8.99
2023-04-10T05:15:11.407Z,9.04
2023-04-10T05:17:40.801Z,9.10
2023-04-10T05:20:12.329Z,9.16
2023-04-10T05:22:41.327Z,9.21
2023-04-10T05:25:10.712Z,9.35
2023-04-10T05:27:39.847Z,9.43
2023-04-10T05:30:11.252Z,9.53
2023-04-10T05:32:40.187Z,9.59
2023-04-10T05:35:10.294Z,9.76
2023-04-10T05:37:39.319Z,9.91
2023-04-10T05:40:10.543Z,10.04
2023-04-10T05:42:39.464Z,10.18
2023-04-10T05:45:09.877Z,10.32
2023-04-10T05:47:38.949Z,10.46
2023-04-10T05:50:09.596Z,10.60
2023-04-10T05:52:38.677Z,10.73
2023-04-10T05:55:10.028Z,10.88
2023-04-10T05:57:40.135Z,11.02
2023-04-10T06:00:11.637Z,11.16
2023-04-10T06:02:40.957Z,11.29
2023-04-10T06:05:10.750Z,11.43
2023-04-10T06:07:40.005Z,11.59
2023-04-10T06:10:11.356Z,11.74
2023-04-10T06:12:40.383Z,11.89
2023-04-10T06:15:11.366Z,12.02
2023-04-10T06:17:43.584Z,12.19
2023-04-10T06:20:13.631Z,12.34
2023-04-10T06:22:42.631Z,12.47
2023-04-10T06:25:11.797Z,12.60
2023-04-10T06:27:40.689Z,12.69
2023-04-10T06:30:11.504Z,12.81
2023-04-10T06:32:41.249Z,12.99
2023-04-10T06:35:11.060Z,13.16
2023-04-10T06:37:39.924Z,13.36
2023-04-10T06:40:11.807Z,13.58
2023-04-10T06:42:41.314Z,13.82
2023-04-10T06:45:11.600Z,14.01
2023-04-10T06:47:41.076Z,14.23
2023-04-10T06:50:11.044Z,14.45
2023-04-10T06:52:40.043Z,14.65
2023-04-10T06:55:10.233Z,14.70
2023-04-10T06:57:39.310Z,14.77
2023-04-10T07:00:10.616Z,14.89
2023-04-10T07:02:39.584Z,15.11
2023-04-10T07:05:10.445Z,15.28
2023-04-10T07:07:39.452Z,15.46
2023-04-10T07:10:10.423Z,15.69
2023-04-10T07:12:39.355Z,15.98
2023-04-10T07:15:11.835Z,16.25
2023-04-10T07:17:40.813Z,16.55
2023-04-10T07:20:11.895Z,16.84
2023-04-10T07:22:41.119Z,17.11
2023-04-10T07:25:11.346Z,17.37
2023-04-10T07:27:40.681Z,17.62
2023-04-10T07:30:13.397Z,17.69
2023-04-10T07:32:42.873Z,17.55
2023-04-10T07:35:11.916Z,17.46
2023-04-10T07:37:41.384Z,17.54
2023-04-10T07:40:12.018Z,17.74
2023-04-10T07:42:40.936Z,17.95
2023-04-10T07:45:11.792Z,18.19
2023-04-10T07:47:40.960Z,18.44
2023-04-10T07:50:10.804Z,18.73
2023-04-10T07:52:39.744Z,18.98
2023-04-10T07:55:09.952Z,19.18
2023-04-10T07:57:40.087Z,19.30
2023-04-10T08:00:13.690Z,19.18
2023-04-10T08:02:42.895Z,18.95
2023-04-10T08:05:12.187Z,18.76
2023-04-10T08:07:41.192Z,18.76
2023-04-10T08:10:11.910Z,18.94
2023-04-10T08:12:40.819Z,19.12
2023-04-10T08:15:11.254Z,19.30
2023-04-10T08:17:40.121Z,19.54
2023-04-10T08:20:12.699Z,19.79
2023-04-10T08:22:41.760Z,20.04
2023-04-10T08:25:11.249Z,20.10
2023-04-10T08:27:40.182Z,20.16
2023-04-10T08:30:11.176Z,20.26
2023-04-10T08:32:40.235Z,20.47
2023-04-10T08:35:10.375Z,20.51
2023-04-10T08:37:39.377Z,20.57
2023-04-10T08:40:10.261Z,20.76
2023-04-10T08:42:39.411Z,20.92
2023-04-10T08:45:10.858Z,21.02
2023-04-10T08:47:43.810Z,21.10
2023-04-10T08:50:16.033Z,21.13
2023-04-10T08:52:46.942Z,21.22
2023-04-10T08:55:15.914Z,21.18
2023-04-10T08:57:54.140Z,21.21
2023-04-10T09:00:30.995Z,21.19
2023-04-10T09:03:00.284Z,21.22
2023-04-10T09:05:30.652Z,21.22
2023-04-10T09:07:59.741Z,21.00
2023-04-10T09:10:29.032Z,20.91
2023-04-10T09:12:57.954Z,21.01
2023-04-10T09:15:26.906Z,21.06
2023-04-10T09:18:00.917Z,20.93
2023-04-10T09:20:32.779Z,20.83
2023-04-10T09:23:01.809Z,20.88
2023-04-10T09:25:33.398Z,20.78
2023-04-10T09:28:04.300Z,20.69
2023-04-10T09:30:38.747Z,20.68
2023-04-10T09:33:24.392Z,20.57
2023-04-10T09:35:53.355Z,20.49
2023-04-10T09:38:23.324Z,20.37
2023-04-10T09:40:53.757Z,20.30
2023-04-10T09:43:25.435Z,20.13
2023-04-10T09:45:56.737Z,20.05
2023-04-10T09:48:26.871Z,19.95
2023-04-10T09:50:57.127Z,19.95
2023-04-10T09:53:26.943Z,19.94
2023-04-10T09:55:57.588Z,20.01
2023-04-10T09:58:27.510Z,20.07
2023-04-10T10:00:56.794Z,20.06
2023-04-10T10:03:26.557Z,20.09
2023-04-10T10:05:56.016Z,20.14
2023-04-10T10:08:25.908Z,20.25
2023-04-10T10:10:57.256Z,20.40
2023-04-10T10:13:34.734Z,20.54
2023-04-10T10:16:12.058Z,20.62
2023-04-10T10:18:47.538Z,20.43
2023-04-10T10:21:18.917Z,20.40
2023-04-10T10:23:53.266Z,20.49
2023-04-10T10:26:23.917Z,20.60
2023-04-10T10:28:53.936Z,20.70
2023-04-10T10:31:24.828Z,20.75
2023-04-10T10:33:54.139Z,20.64
2023-04-10T10:36:24.206Z,20.71
2023-04-10T10:39:11.175Z,20.76
2023-04-10T10:41:46.965Z,20.81
2023-04-10T10:44:21.525Z,20.99
2023-04-10T10:46:58.763Z,21.14
2023-04-10T10:49:52.875Z,21.03
2023-04-10T10:52:39.954Z,21.05
2023-04-10T10:55:36.562Z,20.97
2023-04-10T10:58:07.053Z,20.76
2023-04-10T11:01:10.702Z,20.51
2023-04-10T11:03:40.079Z,20.35
2023-04-10T11:06:12.170Z,20.01
2023-04-10T11:08:46.307Z,19.71
2023-04-10T11:11:19.764Z,19.56
2023-04-10T11:14:19.613Z,19.47
2023-04-10T11:16:48.642Z,19.37
2023-04-10T11:19:21.725Z,19.37
2023-04-10T11:22:06.916Z,19.31
2023-04-10T11:25:00.169Z,19.04
2023-04-10T11:27:48.891Z,18.72
2023-04-10T11:30:37.318Z,18.51
2023-04-10T11:33:06.732Z,18.46
2023-04-10T11:35:36.060Z,18.44
2023-04-10T11:38:16.350Z,18.48
2023-04-10T11:41:06.431Z,18.49
2023-04-10T11:43:35.525Z,18.48
2023-04-10T11:46:08.726Z,18.46
2023-04-10T11:48:38.148Z,18.42
2023-04-10T11:51:11.738Z,18.27
2023-04-10T11:53:41.788Z,18.24
2023-04-10T11:56:18.752Z,18.21
2023-04-10T11:58:50.322Z,18.23
2023-04-10T12:01:22.430Z,18.24
2023-04-10T12:03:51.848Z,18.21
2023-04-10T12:06:22.007Z,18.14
2023-04-10T12:08:51.220Z,18.00
2023-04-10T12:11:21.865Z,17.87
2023-04-10T12:13:53.185Z,17.84
2023-04-10T12:16:23.008Z,17.82
2023-04-10T12:18:53.145Z,17.79
2023-04-10T12:21:22.430Z,17.80
2023-04-10T12:23:52.443Z,17.80
2023-04-10T12:26:22.019Z,17.79
2023-04-10T12:28:56.882Z,17.76
2023-04-10T12:31:30.822Z,17.74
2023-04-10T12:34:01.649Z,17.74
2023-04-10T12:36:33.769Z,17.71
2023-04-10T12:39:04.772Z,17.77
2023-04-10T12:41:35.420Z,17.82
2023-04-10T12:44:12.229Z,17.86
2023-04-10T12:46:42.441Z,17.93
2023-04-10T12:49:13.089Z,17.95
2023-04-10T12:51:46.563Z,17.95
2023-04-10T12:54:30.095Z,17.96
2023-04-10T12:56:59.972Z,17.96
2023-04-10T12:59:29.094Z,17.90
2023-04-10T13:01:58.217Z,17.86
2023-04-10T13:04:28.978Z,17.75
2023-04-10T13:06:57.972Z,17.77
2023-04-10T13:09:26.882Z,17.78
2023-04-10T13:11:57.080Z,17.79
2023-04-10T13:14:26.548Z,17.80
2023-04-10T13:16:55.419Z,17.77
2023-04-10T13:19:24.357Z,17.75
2023-04-10T13:21:53.409Z,17.76
2023-04-10T13:24:22.858Z,17.78
2023-04-10T13:26:51.795Z,17.76
2023-04-10T13:29:20.719Z,17.76
2023-04-10T13:31:50.219Z,17.73
2023-04-10T13:34:19.257Z,17.71
2023-04-10T13:36:48.393Z,17.62
2023-04-10T13:39:18.032Z,17.58
2023-04-10T13:41:47.117Z,17.60
2023-04-10T13:44:16.155Z,17.59
2023-04-10T13:46:45.126Z,17.59
2023-04-10T13:49:16.886Z,17.60
2023-04-10T13:51:46.917Z,17.63
2023-04-10T13:54:16.811Z,17.60
2023-04-10T13:56:45.791Z,17.60
2023-04-10T13:59:15.255Z,17.61
2023-04-10T14:01:44.291Z,17.55
2023-04-10T14:04:13.288Z,17.44
2023-04-10T14:06:42.443Z,17.34
2023-04-10T14:09:11.451Z,17.28
2023-04-10T14:11:40.500Z,17.35
2023-04-10T14:14:09.541Z,17.34
2023-04-10T14:16:38.667Z,17.27
2023-04-10T14:19:07.744Z,17.23
2023-04-10T14:21:36.761Z,17.23
2023-04-10T14:24:06.012Z,17.19
2023-04-10T14:26:34.942Z,17.12
2023-04-10T14:29:04.346Z,17.14
2023-04-10T14:31:33.720Z,17.12
2023-04-10T14:34:03.612Z,17.08
2023-04-10T14:36:32.881Z,17.06
2023-04-10T14:39:02.533Z,17.05
2023-04-10T14:41:31.529Z,17.02
2023-04-10T14:44:00.485Z,17.00
2023-04-10T14:46:29.460Z,16.98
2023-04-10T14:48:58.457Z,16.94
2023-04-10T14:51:27.314Z,16.89
2023-04-10T14:53:56.521Z,16.89
2023-04-10T14:56:25.700Z,16.91
2023-04-10T14:58:54.638Z,16.92
2023-04-10T15:01:23.637Z,16.92
2023-04-10T15:03:53.056Z,16.91
2023-04-10T15:06:22.389Z,16.89
2023-04-10T15:08:51.362Z,16.87
2023-04-10T15:11:20.329Z,16.83
2023-04-10T15:13:49.433Z,16.83
2023-04-10T15:16:18.466Z,16.84
2023-04-10T15:18:48.639Z,16.84
2023-04-10T15:21:18.157Z,16.84
2023-04-10T15:23:47.252Z,16.82
2023-04-10T15:26:16.933Z,16.79
2023-04-10T15:28:46.122Z,16.76
2023-04-10T15:31:15.230Z,16.67
2023-04-10T15:33:44.257Z,16.65
2023-04-10T15:36:13.286Z,16.63
2023-04-10T15:38:42.345Z,16.60
2023-04-10T15:41:12.990Z,16.58
2023-04-10T15:43:42.330Z,16.57
2023-04-10T15:46:11.342Z,16.51
2023-04-10T15:48:40.358Z,16.46
2023-04-10T15:51:09.531Z,16.42
2023-04-10T15:53:38.497Z,16.39
2023-04-10T15:56:08.844Z,16.38
2023-04-10T15:58:37.811Z,16.35
2023-04-10T16:01:07.674Z,16.33
2023-04-10T16:03:36.768Z,16.30
2023-04-10T16:06:07.808Z,16.25
2023-04-10T16:08:36.818Z,16.23
2023-04-10T16:11:06.578Z,16.18
2023-04-10T16:13:35.493Z,16.15
2023-04-10T16:16:05.509Z,16.12
2023-04-10T16:18:34.553Z,16.08
2023-04-10T16:21:07.701Z,16.06
2023-04-10T16:23:36.573Z,16.04
2023-04-10T16:26:06.307Z,16.00
2023-04-10T16:28:35.427Z,15.98
2023-04-10T16:31:04.712Z,15.95
2023-04-10T16:33:33.632Z,15.87
2023-04-10T16:36:04.162Z,15.86
2023-04-10T16:38:34.023Z,15.83
2023-04-10T16:41:04.058Z,15.80
2023-04-10T16:43:33.079Z,15.76
2023-04-10T16:46:02.089Z,15.72
2023-04-10T16:48:30.963Z,15.66
2023-04-10T16:51:05.236Z,15.62
2023-04-10T16:53:35.289Z,15.55
2023-04-10T16:56:05.213Z,15.51
2023-04-10T16:58:36.320Z,15.48
2023-04-10T17:01:17.185Z,15.43
2023-04-10T17:03:47.114Z,15.39
2023-04-10T17:06:16.474Z,15.35
2023-04-10T17:08:45.804Z,15.32
2023-04-10T17:11:15.390Z,15.29
2023-04-10T17:13:45.762Z,15.26
2023-04-10T17:16:14.942Z,15.23
2023-04-10T17:18:45.065Z,15.21
2023-04-10T17:21:14.067Z,15.19
2023-04-10T17:23:43.038Z,15.15
2023-04-10T17:26:15.529Z,15.11
2023-04-10T17:28:45.747Z,15.08
2023-04-10T17:31:15.381Z,15.02
2023-04-10T17:33:44.690Z,15.02
2023-04-10T17:36:14.479Z,14.97
2023-04-10T17:38:43.466Z,14.94
2023-04-10T17:41:15.039Z,14.89
2023-04-10T17:43:43.949Z,14.85
2023-04-10T17:46:14.982Z,14.81
2023-04-10T17:48:44.731Z,14.77
2023-04-10T17:51:13.773Z,14.75
2023-04-10T17:53:42.778Z,14.74
2023-04-10T17:56:19.304Z,14.72
2023-04-10T17:58:48.262Z,14.68
2023-04-10T18:01:22.899Z,14.64
2023-04-10T18:03:52.044Z,14.62
2023-04-10T18:06:21.212Z,14.59
2023-04-10T18:08:50.332Z,14.56
2023-04-10T18:11:19.363Z,14.50
2023-04-10T18:13:48.401Z,14.45
2023-04-10T18:16:17.438Z,14.43
2023-04-10T18:18:46.536Z,14.41
2023-04-10T18:21:15.898Z,14.40
2023-04-10T18:23:44.891Z,14.39
2023-04-10T18:26:13.808Z,14.36
2023-04-10T18:28:44.739Z,14.34
2023-04-10T18:31:15.438Z,14.32
2023-04-10T18:33:45.506Z,14.31
2023-04-10T18:36:18.351Z,14.27
2023-04-10T18:38:47.841Z,14.30
2023-04-10T18:41:16.973Z,14.28
2023-04-10T18:44:01.734Z,14.24
2023-04-10T18:46:33.888Z,14.22
2023-04-10T18:49:03.016Z,14.19
2023-04-10T18:51:34.565Z,14.19
2023-04-10T18:54:04.424Z,14.19
2023-04-10T18:56:36.700Z,14.18
2023-04-10T18:59:05.969Z,14.16
2023-04-10T19:01:35.018Z,14.15
2023-04-10T19:04:04.200Z,14.14
2023-04-10T19:06:34.649Z,14.13
2023-04-10T19:09:03.604Z,14.13
2023-04-10T19:11:33.154Z,14.12
2023-04-10T19:14:05.644Z,14.11
2023-04-10T19:16:35.220Z,14.10
2023-04-10T19:19:04.433Z,14.09
2023-04-10T19:21:33.853Z,14.08
2023-04-10T19:24:02.868Z,14.03
2023-04-10T19:26:31.969Z,14.03
2023-04-10T19:29:01.093Z,14.00
2023-04-10T19:31:30.485Z,13.96
2023-04-10T19:34:01.929Z,13.93
2023-04-10T19:36:30.848Z,13.90
2023-04-10T19:38:59.782Z,13.89
2023-04-10T19:41:28.752Z,13.87
2023-04-10T19:43:58.329Z,13.86
2023-04-10T19:46:27.671Z,13.84
2023-04-10T19:48:56.766Z,13.82
2023-04-10T19:51:26.639Z,13.79
2023-04-10T19:53:56.821Z,13.76
2023-04-10T19:56:27.181Z,13.73
2023-04-10T19:58:56.404Z,13.71
2023-04-10T20:01:25.640Z,13.69
2023-04-10T20:03:54.753Z,13.68
2023-04-10T20:06:23.915Z,13.67
2023-04-10T20:08:53.175Z,13.66
2023-04-10T20:11:22.387Z,13.64
2023-04-10T20:13:52.552Z,13.63
2023-04-10T20:16:21.547Z,13.61
2023-04-10T20:18:51.516Z,13.60
2023-04-10T20:21:20.669Z,13.58
2023-04-10T20:23:49.591Z,13.60
2023-04-10T20:26:18.900Z,13.58
2023-04-10T20:28:47.804Z,13.58
2023-04-10T20:31:16.850Z,13.57
2023-04-10T20:33:45.782Z,13.55
2023-04-10T20:36:14.726Z,13.55
2023-04-10T20:38:43.620Z,13.52
2023-04-10T20:41:12.588Z,13.50
2023-04-10T20:43:41.680Z,13.47
2023-04-10T20:46:10.699Z,13.44
2023-04-10T20:48:39.594Z,13.40
2023-04-10T20:51:09.958Z,13.39
2023-04-10T20:53:38.947Z,13.38
2023-04-10T20:56:09.024Z,13.37
2023-04-10T20:58:38.151Z,13.36
2023-04-10T21:01:09.504Z,13.34
2023-04-10T21:03:38.631Z,13.33
2023-04-10T21:06:10.501Z,13.31
2023-04-10T21:08:39.498Z,13.31
2023-04-10T21:11:08.853Z,13.30
2023-04-10T21:13:38.624Z,13.28
2023-04-10T21:16:08.969Z,13.26
2023-04-10T21:18:38.004Z,13.25
2023-04-10T21:21:08.177Z,13.24
2023-04-10T21:23:37.204Z,13.23
2023-04-10T21:26:06.480Z,13.21
2023-04-10T21:28:35.557Z,13.19
2023-04-10T21:31:04.908Z,13.18
2023-04-10T21:33:33.865Z,13.18
2023-04-10T21:36:02.987Z,13.16
2023-04-10T21:38:31.953Z,13.16
2023-04-10T21:41:01.010Z,13.16
2023-04-10T21:43:30.122Z,13.16
2023-04-10T21:46:00.351Z,13.17
2023-04-10T21:48:30.995Z,13.17
2023-04-10T21:51:01.464Z,13.17
2023-04-10T21:53:30.455Z,13.17
2023-04-10T21:55:59.620Z,13.16
2023-04-10T21:58:28.948Z,13.13
2023-04-10T22:00:57.969Z,13.11
2023-04-10T22:03:27.184Z,13.07
2023-04-10T22:05:56.387Z,13.08
2023-04-10T22:08:25.478Z,13.07
2023-04-10T22:10:54.817Z,13.06
2023-04-10T22:13:30.781Z,13.06
2023-04-10T22:16:01.655Z,13.06
2023-04-10T22:18:31.372Z,13.07
2023-04-10T22:21:00.432Z,13.05
2023-04-10T22:23:29.470Z,13.02
2023-04-10T22:26:00.599Z,13.00
2023-04-10T22:28:29.667Z,12.97
2023-04-10T22:30:58.802Z,12.91
2023-04-10T22:33:27.810Z,12.86
2023-04-10T22:35:56.890Z,12.86
2023-04-10T22:38:25.764Z,12.84
2023-04-10T22:40:55.672Z,12.85
2023-04-10T22:43:24.960Z,12.86
2023-04-10T22:45:53.995Z,12.86
2023-04-10T22:48:22.955Z,12.86
2023-04-10T22:50:52.004Z,12.86
2023-04-10T22:53:21.051Z,12.87
2023-04-10T22:55:50.153Z,12.87
2023-04-10T22:58:19.241Z,12.88
2023-04-10T23:00:48.135Z,12.89
2023-04-10T23:03:17.232Z,12.89
2023-04-10T23:05:46.804Z,12.89
2023-04-10T23:08:15.875Z,12.90
2023-04-10T23:10:44.780Z,12.89
2023-04-10T23:13:13.890Z,12.89
2023-04-10T23:15:50.016Z,12.88
2023-04-10T23:18:19.381Z,12.86
2023-04-10T23:20:48.970Z,12.84
2023-04-10T23:23:18.053Z,12.82
2023-04-10T23:25:47.427Z,12.80
2023-04-10T23:28:16.345Z,12.78
2023-04-10T23:30:45.357Z,12.76
2023-04-10T23:33:14.255Z,12.72
2023-04-10T23:35:43.468Z,12.63
2023-04-10T23:42:12.665Z,12.41
2023-04-10T23:44:41.718Z,12.36
2023-04-10T23:47:10.645Z,12.29
2023-04-10T23:49:39.913Z,12.22
2023-04-10T23:52:10.626Z,12.19
2023-04-10T23:54:40.311Z,12.18
2023-04-10T23:57:09.384Z,12.19
2023-04-10T23:59:38.422Z,12.16
